sensor_id;sensor_type;location;lat;lon;timestamp;pressure;altitude;pressure_sealevel;temperature;humidity
55373;BME280;70018;47.838;16.490;2023-06-10T00:00:59;98947.84;;;9.60;88.24
55373;BME280;70018;47.838;16.490;2023-06-10T00:03:27;98951.41;;;9.57;88.78
55373;BME280;70018;47.838;16.490;2023-06-10T00:05:55;98947.03;;;9.56;89.04
55373;BME280;70018;47.838;16.490;2023-06-10T00:08:21;98950.22;;;9.54;89.13
55373;BME280;70018;47.838;16.490;2023-06-10T00:10:48;98949.41;;;9.54;89.23
55373;BME280;70018;47.838;16.490;2023-06-10T00:13:15;98948.63;;;9.57;89.00
55373;BME280;70018;47.838;16.490;2023-06-10T00:15:43;98949.41;;;9.61;88.34
55373;BME280;70018;47.838;16.490;2023-06-10T00:18:09;98949.41;;;9.64;88.35
55373;BME280;70018;47.838;16.490;2023-06-10T00:20:36;98943.84;;;9.68;88.03
55373;BME280;70018;47.838;16.490;2023-06-10T00:23:04;98942.63;;;9.76;87.51
55373;BME280;70018;47.838;16.490;2023-06-10T00:25:33;98947.81;;;9.70;87.46
55373;BME280;70018;47.838;16.490;2023-06-10T00:27:59;98939.91;;;9.62;87.70
55373;BME280;70018;47.838;16.490;2023-06-10T00:30:26;98939.94;;;9.55;87.75
55373;BME280;70018;47.838;16.490;2023-06-10T00:32:53;98950.25;;;9.51;88.19
55373;BME280;70018;47.838;16.490;2023-06-10T00:35:20;98943.09;;;9.50;88.02
55373;BME280;70018;47.838;16.490;2023-06-10T00:37:46;98937.94;;;9.52;88.17
55373;BME280;70018;47.838;16.490;2023-06-10T00:40:13;98949.41;;;9.54;87.91
55373;BME280;70018;47.838;16.490;2023-06-10T00:42:39;98950.59;;;9.60;87.82
55373;BME280;70018;47.838;16.490;2023-06-10T00:45:06;98947.03;;;9.63;87.55
55373;BME280;70018;47.838;16.490;2023-06-10T00:47:34;98948.22;;;9.62;87.56
55373;BME280;70018;47.838;16.490;2023-06-10T00:50:02;98936.75;;;9.60;87.54
55373;BME280;70018;47.838;16.490;2023-06-10T00:52:29;98947.84;;;9.60;87.14
55373;BME280;70018;47.838;16.490;2023-06-10T00:54:57;98949.00;;;9.59;86.87
55373;BME280;70018;47.838;16.490;2023-06-10T00:57:25;98948.25;;;9.55;87.11
55373;BME280;70018;47.838;16.490;2023-06-10T00:59:53;98952.59;;;9.49;87.52
55373;BME280;70018;47.838;16.490;2023-06-10T01:02:20;98949.44;;;9.47;87.79
55373;BME280;70018;47.838;16.490;2023-06-10T01:04:47;98943.50;;;9.45;87.52
55373;BME280;70018;47.838;16.490;2023-06-10T01:07:30;98951.03;;;9.41;87.70
55373;BME280;70018;47.838;16.490;2023-06-10T01:13:06;98953.41;;;9.32;87.94
55373;BME280;70018;47.838;16.490;2023-06-10T01:15:35;98947.06;;;9.28;87.65
55373;BME280;70018;47.838;16.490;2023-06-10T01:18:04;98951.41;;;9.29;87.79
55373;BME280;70018;47.838;16.490;2023-06-10T01:20:36;98947.88;;;9.35;87.71
55373;BME280;70018;47.838;16.490;2023-06-10T01:23:07;98946.69;;;9.40;87.81
55373;BME280;70018;47.838;16.490;2023-06-10T01:25:39;98941.13;;;9.47;87.40
55373;BME280;70018;47.838;16.490;2023-06-10T01:28:31;98949.81;;;9.49;87.42
55373;BME280;70018;47.838;16.490;2023-06-10T01:31:18;98943.91;;;9.50;87.07
55373;BME280;70018;47.838;16.490;2023-06-10T01:33:51;98958.56;;;9.51;87.60
55373;BME280;70018;47.838;16.490;2023-06-10T01:36:18;98955.00;;;9.36;87.59
55373;BME280;70018;47.838;16.490;2023-06-10T01:38:47;98956.56;;;9.34;87.96
55373;BME280;70018;47.838;16.490;2023-06-10T01:41:16;98956.16;;;9.25;88.30
55373;BME280;70018;47.838;16.490;2023-06-10T01:43:45;98960.94;;;9.20;88.56
55373;BME280;70018;47.838;16.490;2023-06-10T01:46:12;98955.78;;;9.15;88.74
55373;BME280;70018;47.838;16.490;2023-06-10T01:48:41;98954.97;;;9.18;88.77
55373;BME280;70018;47.838;16.490;2023-06-10T01:51:08;98959.72;;;9.25;88.80
55373;BME280;70018;47.838;16.490;2023-06-10T01:53:35;98953.78;;;9.27;88.74
55373;BME280;70018;47.838;16.490;2023-06-10T01:56:01;98954.19;;;9.29;88.64
55373;BME280;70018;47.838;16.490;2023-06-10T01:58:28;98951.81;;;9.55;88.83
55373;BME280;70018;47.838;16.490;2023-06-10T02:00:55;98958.13;;;9.63;88.00
55373;BME280;70018;47.838;16.490;2023-06-10T02:03:21;98954.16;;;9.64;88.17
55373;BME280;70018;47.838;16.490;2023-06-10T02:05:49;98954.56;;;9.55;87.80
55373;BME280;70018;47.838;16.490;2023-06-10T02:08:16;98954.19;;;9.50;88.53
55373;BME280;70018;47.838;16.490;2023-06-10T02:10:43;98956.56;;;9.55;88.00
55373;BME280;70018;47.838;16.490;2023-06-10T02:13:09;98952.97;;;9.61;87.97
55373;BME280;70018;47.838;16.490;2023-06-10T02:15:36;98964.47;;;9.53;88.09
55373;BME280;70018;47.838;16.490;2023-06-10T02:18:03;98952.59;;;9.49;88.65
55373;BME280;70018;47.838;16.490;2023-06-10T02:20:29;98958.16;;;9.42;88.69
55373;BME280;70018;47.838;16.490;2023-06-10T02:22:56;98958.53;;;9.54;89.04
55373;BME280;70018;47.838;16.490;2023-06-10T02:25:23;98959.34;;;9.44;88.96
55373;BME280;70018;47.838;16.490;2023-06-10T02:27:50;98957.34;;;9.52;88.94
55373;BME280;70018;47.838;16.490;2023-06-10T02:30:17;98964.84;;;9.58;88.87
55373;BME280;70018;47.838;16.490;2023-06-10T02:32:43;98953.03;;;9.40;89.04
55373;BME280;70018;47.838;16.490;2023-06-10T02:35:14;98954.19;;;9.29;89.32
55373;BME280;70018;47.838;16.490;2023-06-10T02:37:42;98958.16;;;9.20;89.70
55373;BME280;70018;47.838;16.490;2023-06-10T02:40:09;98952.22;;;9.11;90.02
55373;BME280;70018;47.838;16.490;2023-06-10T02:42:36;98954.22;;;9.07;90.70
55373;BME280;70018;47.838;16.490;2023-06-10T02:45:03;98951.44;;;9.18;91.00
55373;BME280;70018;47.838;16.490;2023-06-10T02:47:30;98961.34;;;9.33;90.56
55373;BME280;70018;47.838;16.490;2023-06-10T02:49:57;98957.38;;;9.09;90.45
55373;BME280;70018;47.838;16.490;2023-06-10T02:52:24;98967.66;;;8.98;91.29
55373;BME280;70018;47.838;16.490;2023-06-10T02:54:51;98965.28;;;8.97;91.55
55373;BME280;70018;47.838;16.490;2023-06-10T02:57:18;98973.97;;;9.02;91.70
55373;BME280;70018;47.838;16.490;2023-06-10T02:59:44;98972.41;;;8.98;91.77
55373;BME280;70018;47.838;16.490;2023-06-10T03:02:11;98971.22;;;8.88;92.15
55373;BME280;70018;47.838;16.490;2023-06-10T03:04:38;98979.50;;;8.81;91.88
55373;BME280;70018;47.838;16.490;2023-06-10T03:07:05;98980.28;;;8.78;92.04
55373;BME280;70018;47.838;16.490;2023-06-10T03:09:33;98980.66;;;8.77;91.80
55373;BME280;70018;47.838;16.490;2023-06-10T03:12:00;98983.47;;;8.73;92.27
55373;BME280;70018;47.838;16.490;2023-06-10T03:14:27;98992.94;;;8.72;91.99
55373;BME280;70018;47.838;16.490;2023-06-10T03:16:53;98988.19;;;8.76;91.83
55373;BME280;70018;47.838;16.490;2023-06-10T03:19:20;98982.28;;;8.85;91.61
55373;BME280;70018;47.838;16.490;2023-06-10T03:21:58;98978.72;;;8.88;90.81
55373;BME280;70018;47.838;16.490;2023-06-10T03:24:33;98985.44;;;8.90;90.90
55373;BME280;70018;47.838;16.490;2023-06-10T03:27:00;98985.06;;;8.95;91.36
55373;BME280;70018;47.838;16.490;2023-06-10T03:29:26;98981.13;;;9.03;90.95
55373;BME280;70018;47.838;16.490;2023-06-10T03:31:53;98990.59;;;9.02;90.87
55373;BME280;70018;47.838;16.490;2023-06-10T03:34:20;98991.78;;;9.05;90.31
55373;BME280;70018;47.838;16.490;2023-06-10T03:36:46;98996.13;;;9.09;90.36
55373;BME280;70018;47.838;16.490;2023-06-10T03:39:13;98988.59;;;9.13;90.56
55373;BME280;70018;47.838;16.490;2023-06-10T03:41:40;98992.97;;;9.21;90.34
55373;BME280;70018;47.838;16.490;2023-06-10T03:44:07;98991.78;;;9.23;89.94
55373;BME280;70018;47.838;16.490;2023-06-10T03:46:33;98999.31;;;9.26;89.82
55373;BME280;70018;47.838;16.490;2023-06-10T03:49:00;99003.25;;;9.28;90.02
55373;BME280;70018;47.838;16.490;2023-06-10T03:51:27;98998.94;;;9.31;90.01
55373;BME280;70018;47.838;16.490;2023-06-10T03:53:53;99004.47;;;9.38;89.63
55373;BME280;70018;47.838;16.490;2023-06-10T03:56:20;98999.72;;;9.45;89.99
55373;BME280;70018;47.838;16.490;2023-06-10T03:58:47;99004.84;;;9.54;89.47
55373;BME280;70018;47.838;16.490;2023-06-10T04:01:13;99007.59;;;9.61;89.59
55373;BME280;70018;47.838;16.490;2023-06-10T04:03:40;98997.69;;;9.67;89.51
55373;BME280;70018;47.838;16.490;2023-06-10T04:06:08;99006.41;;;9.72;89.31
55373;BME280;70018;47.838;16.490;2023-06-10T04:08:35;99011.53;;;9.84;89.16
55373;BME280;70018;47.838;16.490;2023-06-10T04:11:02;99009.53;;;9.92;89.19
55373;BME280;70018;47.838;16.490;2023-06-10T04:13:29;99020.19;;;9.97;89.17
55373;BME280;70018;47.838;16.490;2023-06-10T04:15:55;99018.59;;;10.00;89.37
55373;BME280;70018;47.838;16.490;2023-06-10T04:18:22;99017.41;;;10.08;89.37
55373;BME280;70018;47.838;16.490;2023-06-10T04:20:49;99018.59;;;10.10;89.18
55373;BME280;70018;47.838;16.490;2023-06-10T04:23:15;99019.34;;;10.14;89.50
55373;BME280;70018;47.838;16.490;2023-06-10T04:25:42;99017.75;;;10.20;89.62
55373;BME280;70018;47.838;16.490;2023-06-10T04:28:09;99018.13;;;10.22;89.15
55373;BME280;70018;47.838;16.490;2023-06-10T04:30:36;99015.75;;;10.28;89.71
55373;BME280;70018;47.838;16.490;2023-06-10T04:33:02;99020.13;;;10.25;89.28
55373;BME280;70018;47.838;16.490;2023-06-10T04:35:29;99017.69;;;10.34;88.98
55373;BME280;70018;47.838;16.490;2023-06-10T04:37:56;99009.31;;;10.41;89.05
55373;BME280;70018;47.838;16.490;2023-06-10T04:40:23;99017.22;;;10.54;89.06
55373;BME280;70018;47.838;16.490;2023-06-10T04:42:49;99015.63;;;10.60;88.56
55373;BME280;70018;47.838;16.490;2023-06-10T04:45:16;99015.56;;;10.70;88.69
55373;BME280;70018;47.838;16.490;2023-06-10T04:47:43;99012.31;;;10.79;88.38
55373;BME280;70018;47.838;16.490;2023-06-10T04:50:10;99008.31;;;10.87;88.15
55373;BME280;70018;47.838;16.490;2023-06-10T04:52:36;99010.22;;;10.97;88.05
55373;BME280;70018;47.838;16.490;2023-06-10T04:55:03;99011.34;;;11.03;88.02
55373;BME280;70018;47.838;16.490;2023-06-10T04:57:30;99015.28;;;11.09;88.13
55373;BME280;70018;47.838;16.490;2023-06-10T04:59:57;99012.84;;;11.18;87.65
55373;BME280;70018;47.838;16.490;2023-06-10T05:02:23;99007.25;;;11.22;87.80
55373;BME280;70018;47.838;16.490;2023-06-10T05:04:50;99012.81;;;11.25;87.76
55373;BME280;70018;47.838;16.490;2023-06-10T05:07:17;99011.53;;;11.33;87.42
55373;BME280;70018;47.838;16.490;2023-06-10T05:09:43;99011.00;;;11.45;87.28
55373;BME280;70018;47.838;16.490;2023-06-10T05:12:11;99012.91;;;11.62;87.31
55373;BME280;70018;47.838;16.490;2023-06-10T05:14:38;99006.03;;;11.70;87.05
55373;BME280;70018;47.838;16.490;2023-06-10T05:17:05;99007.22;;;11.73;87.14
55373;BME280;70018;47.838;16.490;2023-06-10T05:19:32;99009.44;;;11.89;86.68
55373;BME280;70018;47.838;16.490;2023-06-10T05:21:59;99007.34;;;12.00;86.78
55373;BME280;70018;47.838;16.490;2023-06-10T05:24:25;99002.06;;;12.09;86.47
55373;BME280;70018;47.838;16.490;2023-06-10T05:26:52;99000.00;;;12.13;86.47
55373;BME280;70018;47.838;16.490;2023-06-10T05:29:19;99007.00;;;12.28;86.29
55373;BME280;70018;47.838;16.490;2023-06-10T05:31:46;99012.31;;;12.49;85.95
55373;BME280;70018;47.838;16.490;2023-06-10T05:34:12;99015.03;;;12.56;85.45
55373;BME280;70018;47.838;16.490;2023-06-10T05:36:39;99002.72;;;12.50;84.68
55373;BME280;70018;47.838;16.490;2023-06-10T05:39:06;99005.88;;;12.56;84.02
55373;BME280;70018;47.838;16.490;2023-06-10T05:41:32;99010.03;;;12.71;84.20
55373;BME280;70018;47.838;16.490;2023-06-10T05:43:59;99023.34;;;12.86;84.08
55373;BME280;70018;47.838;16.490;2023-06-10T05:46:26;99023.72;;;12.88;83.20
55373;BME280;70018;47.838;16.490;2023-06-10T05:48:52;99017.28;;;13.18;82.92
55373;BME280;70018;47.838;16.490;2023-06-10T05:51:19;99020.44;;;13.47;82.29
55373;BME280;70018;47.838;16.490;2023-06-10T05:53:46;99018.34;;;13.54;82.12
55373;BME280;70018;47.838;16.490;2023-06-10T05:56:14;99027.53;;;13.51;81.83
55373;BME280;70018;47.838;16.490;2023-06-10T05:58:40;99026.69;;;13.54;81.26
55373;BME280;70018;47.838;16.490;2023-06-10T06:01:07;99023.22;;;13.70;80.47
55373;BME280;70018;47.838;16.490;2023-06-10T06:03:34;99029.97;;;13.92;80.33
55373;BME280;70018;47.838;16.490;2023-06-10T06:06:02;99023.81;;;13.81;78.98
55373;BME280;70018;47.838;16.490;2023-06-10T06:08:29;99039.28;;;13.86;79.47
55373;BME280;70018;47.838;16.490;2023-06-10T06:10:56;99031.97;;;13.72;78.94
55373;BME280;70018;47.838;16.490;2023-06-10T06:13:22;99039.38;;;13.59;79.32
55373;BME280;70018;47.838;16.490;2023-06-10T06:15:49;99035.34;;;13.60;79.75
55373;BME280;70018;47.838;16.490;2023-06-10T06:18:16;99032.06;;;13.65;79.71
55373;BME280;70018;47.838;16.490;2023-06-10T06:20:45;99039.91;;;13.74;79.64
55373;BME280;70018;47.838;16.490;2023-06-10T06:23:11;99027.94;;;13.73;79.06
55373;BME280;70018;47.838;16.490;2023-06-10T06:25:38;99030.47;;;13.87;78.75
55373;BME280;70018;47.838;16.490;2023-06-10T06:28:06;99037.97;;;14.13;78.09
55373;BME280;70018;47.838;16.490;2023-06-10T06:30:33;99025.88;;;14.40;77.79
55373;BME280;70018;47.838;16.490;2023-06-10T06:33:00;99023.00;;;14.63;76.95
55373;BME280;70018;47.838;16.490;2023-06-10T06:35:27;99032.53;;;14.65;76.76
55373;BME280;70018;47.838;16.490;2023-06-10T06:37:54;99028.25;;;14.61;77.44
55373;BME280;70018;47.838;16.490;2023-06-10T06:40:20;99033.78;;;14.64;77.02
55373;BME280;70018;47.838;16.490;2023-06-10T06:42:47;99043.38;;;14.44;77.47
55373;BME280;70018;47.838;16.490;2023-06-10T06:45:14;99035.19;;;14.33;76.76
55373;BME280;70018;47.838;16.490;2023-06-10T06:47:41;99035.06;;;14.40;76.38
55373;BME280;70018;47.838;16.490;2023-06-10T06:50:08;99039.28;;;14.68;76.10
55373;BME280;70018;47.838;16.490;2023-06-10T06:52:35;99044.19;;;14.80;75.89
55373;BME280;70018;47.838;16.490;2023-06-10T06:55:02;99040.41;;;14.70;76.65
55373;BME280;70018;47.838;16.490;2023-06-10T06:57:28;99040.72;;;14.56;75.69
55373;BME280;70018;47.838;16.490;2023-06-10T06:59:55;99042.72;;;14.56;75.80
55373;BME280;70018;47.838;16.490;2023-06-10T07:02:22;99058.16;;;14.80;75.34
55373;BME280;70018;47.838;16.490;2023-06-10T07:04:48;99052.03;;;14.69;73.86
55373;BME280;70018;47.838;16.490;2023-06-10T07:07:16;99057.25;;;14.86;74.26
55373;BME280;70018;47.838;16.490;2023-06-10T07:09:43;99052.97;;;14.98;74.61
55373;BME280;70018;47.838;16.490;2023-06-10T07:12:09;99057.72;;;15.17;74.26
55373;BME280;70018;47.838;16.490;2023-06-10T07:14:36;99049.78;;;15.16;74.34
55373;BME280;70018;47.838;16.490;2023-06-10T07:17:03;99056.50;;;15.18;73.47
55373;BME280;70018;47.838;16.490;2023-06-10T07:19:29;99052.97;;;14.98;73.27
55373;BME280;70018;47.838;16.490;2023-06-10T07:21:56;99054.06;;;15.20;73.48
55373;BME280;70018;47.838;16.490;2023-06-10T07:24:23;99061.94;;;15.09;73.73
55373;BME280;70018;47.838;16.490;2023-06-10T07:26:50;99062.56;;;14.97;73.93
55373;BME280;70018;47.838;16.490;2023-06-10T07:29:17;99059.25;;;14.86;74.44
55373;BME280;70018;47.838;16.490;2023-06-10T07:31:43;99050.03;;;14.69;74.49
55373;BME280;70018;47.838;16.490;2023-06-10T07:34:10;99053.44;;;14.77;74.28
55373;BME280;70018;47.838;16.490;2023-06-10T07:36:37;99060.16;;;14.99;73.89
55373;BME280;70018;47.838;16.490;2023-06-10T07:39:04;99056.34;;;15.09;73.49
55373;BME280;70018;47.838;16.490;2023-06-10T07:41:31;99064.22;;;15.14;73.33
55373;BME280;70018;47.838;16.490;2023-06-10T07:43:57;99051.84;;;15.64;72.06
55373;BME280;70018;47.838;16.490;2023-06-10T07:46:24;99060.75;;;15.75;71.78
55373;BME280;70018;47.838;16.490;2023-06-10T07:48:51;99048.34;;;15.76;71.62
55373;BME280;70018;47.838;16.490;2023-06-10T07:51:17;99054.25;;;15.94;71.09
55373;BME280;70018;47.838;16.490;2023-06-10T07:53:44;99054.03;;;16.17;70.26
55373;BME280;70018;47.838;16.490;2023-06-10T07:56:11;99060.28;;;16.37;68.57
55373;BME280;70018;47.838;16.490;2023-06-10T07:58:38;99057.50;;;16.78;68.07
55373;BME280;70018;47.838;16.490;2023-06-10T08:01:05;99052.50;;;17.11;66.49
55373;BME280;70018;47.838;16.490;2023-06-10T08:03:31;99059.00;;;16.54;65.51
55373;BME280;70018;47.838;16.490;2023-06-10T08:05:58;99052.84;;;16.59;66.69
55373;BME280;70018;47.838;16.490;2023-06-10T08:08:25;99055.19;;;16.48;67.47
55373;BME280;70018;47.838;16.490;2023-06-10T08:10:52;99065.69;;;16.15;67.95
55373;BME280;70018;47.838;16.490;2023-06-10T08:13:18;99065.53;;;15.74;68.62
55373;BME280;70018;47.838;16.490;2023-06-10T08:15:45;99070.19;;;15.81;68.25
55373;BME280;70018;47.838;16.490;2023-06-10T08:18:14;99062.41;;;15.88;68.67
55373;BME280;70018;47.838;16.490;2023-06-10T08:20:40;99066.16;;;15.98;68.45
55373;BME280;70018;47.838;16.490;2023-06-10T08:23:07;99075.75;;;15.97;68.53
55373;BME280;70018;47.838;16.490;2023-06-10T08:25:34;99069.13;;;15.91;68.47
55373;BME280;70018;47.838;16.490;2023-06-10T08:28:00;99068.03;;;16.33;68.05
55373;BME280;70018;47.838;16.490;2023-06-10T08:30:27;99072.94;;;16.58;67.27
55373;BME280;70018;47.838;16.490;2023-06-10T08:32:53;99072.22;;;16.41;67.07
55373;BME280;70018;47.838;16.490;2023-06-10T08:35:20;99079.66;;;16.60;66.59
55373;BME280;70018;47.838;16.490;2023-06-10T08:37:47;99081.44;;;16.26;66.56
55373;BME280;70018;47.838;16.490;2023-06-10T08:40:14;99080.28;;;16.52;66.71
55373;BME280;70018;47.838;16.490;2023-06-10T08:43:07;99080.00;;;16.91;64.85
55373;BME280;70018;47.838;16.490;2023-06-10T08:45:36;99080.94;;;16.84;65.12
55373;BME280;70018;47.838;16.490;2023-06-10T08:48:04;99082.25;;;16.67;65.08
55373;BME280;70018;47.838;16.490;2023-06-10T08:50:37;99084.84;;;16.74;64.93
55373;BME280;70018;47.838;16.490;2023-06-10T08:53:06;99081.66;;;16.60;64.77
55373;BME280;70018;47.838;16.490;2023-06-10T08:55:36;99081.78;;;16.98;64.27
55373;BME280;70018;47.838;16.490;2023-06-10T08:58:04;99087.44;;;17.48;63.71
55373;BME280;70018;47.838;16.490;2023-06-10T09:00:31;99083.38;;;17.24;63.67
55373;BME280;70018;47.838;16.490;2023-06-10T09:02:58;99085.72;;;17.00;64.47
55373;BME280;70018;47.838;16.490;2023-06-10T09:05:33;99076.19;;;16.56;65.61
55373;BME280;70018;47.838;16.490;2023-06-10T09:08:00;99092.84;;;16.47;66.51
55373;BME280;70018;47.838;16.490;2023-06-10T09:10:27;99087.28;;;16.60;66.05
55373;BME280;70018;47.838;16.490;2023-06-10T09:12:53;99086.28;;;16.95;65.19
55373;BME280;70018;47.838;16.490;2023-06-10T09:15:20;99090.22;;;17.23;64.23
55373;BME280;70018;47.838;16.490;2023-06-10T09:17:47;99089.88;;;16.96;64.06
55373;BME280;70018;47.838;16.490;2023-06-10T09:20:14;99085.94;;;16.64;64.77
55373;BME280;70018;47.838;16.490;2023-06-10T09:22:42;99100.25;;;16.25;66.16
55373;BME280;70018;47.838;16.490;2023-06-10T09:25:11;99089.97;;;15.74;67.19
55373;BME280;70018;47.838;16.490;2023-06-10T09:27:45;99107.09;;;15.43;68.12
55373;BME280;70018;47.838;16.490;2023-06-10T09:30:34;99099.84;;;15.46;68.52
55373;BME280;70018;47.838;16.490;2023-06-10T09:33:02;99090.72;;;15.42;68.29
55373;BME280;70018;47.838;16.490;2023-06-10T09:35:30;99091.19;;;15.57;68.02
55373;BME280;70018;47.838;16.490;2023-06-10T09:37:59;99092.94;;;15.83;66.83
55373;BME280;70018;47.838;16.490;2023-06-10T09:40:26;99085.72;;;16.30;65.74
55373;BME280;70018;47.838;16.490;2023-06-10T09:43:00;99085.88;;;16.80;65.08
55373;BME280;70018;47.838;16.490;2023-06-10T09:45:31;99083.81;;;17.10;63.94
55373;BME280;70018;47.838;16.490;2023-06-10T09:48:00;99091.91;;;17.08;63.24
55373;BME280;70018;47.838;16.490;2023-06-10T09:50:27;99078.22;;;17.35;63.03
55373;BME280;70018;47.838;16.490;2023-06-10T09:52:54;99091.91;;;17.83;62.67
55373;BME280;70018;47.838;16.490;2023-06-10T09:55:21;99092.94;;;17.64;62.45
55373;BME280;70018;47.838;16.490;2023-06-10T09:57:53;99087.53;;;17.82;62.34
55373;BME280;70018;47.838;16.490;2023-06-10T10:00:22;99090.34;;;17.70;61.60
55373;BME280;70018;47.838;16.490;2023-06-10T10:02:51;99082.38;;;17.56;60.87
55373;BME280;70018;47.838;16.490;2023-06-10T10:05:20;99094.59;;;17.74;61.36
55373;BME280;70018;47.838;16.490;2023-06-10T10:07:47;99094.72;;;17.58;61.44
55373;BME280;70018;47.838;16.490;2023-06-10T10:10:17;99078.13;;;17.38;62.03
55373;BME280;70018;47.838;16.490;2023-06-10T10:12:46;99083.03;;;17.09;63.05
55373;BME280;70018;47.838;16.490;2023-06-10T10:15:16;99087.41;;;16.98;63.17
55373;BME280;70018;47.838;16.490;2023-06-10T10:17:52;99084.84;;;17.16;63.20
55373;BME280;70018;47.838;16.490;2023-06-10T10:20:27;99081.34;;;17.12;63.57
55373;BME280;70018;47.838;16.490;2023-06-10T10:22:57;99086.28;;;17.08;63.86
55373;BME280;70018;47.838;16.490;2023-06-10T10:25:27;99080.41;;;16.90;63.91
55373;BME280;70018;47.838;16.490;2023-06-10T10:27:59;99088.84;;;16.90;64.27
55373;BME280;70018;47.838;16.490;2023-06-10T10:30:30;99084.03;;;17.03;64.19
55373;BME280;70018;47.838;16.490;2023-06-10T10:33:08;99083.03;;;17.09;64.18
55373;BME280;70018;47.838;16.490;2023-06-10T10:35:37;99074.72;;;17.56;63.35
55373;BME280;70018;47.838;16.490;2023-06-10T10:38:04;99082.94;;;17.51;62.98
55373;BME280;70018;47.838;16.490;2023-06-10T10:40:32;99082.38;;;17.18;62.86
55373;BME280;70018;47.838;16.490;2023-06-10T10:42:59;99075.41;;;17.22;63.14
55373;BME280;70018;47.838;16.490;2023-06-10T10:45:29;99075.09;;;17.45;62.78
55373;BME280;70018;47.838;16.490;2023-06-10T10:47:56;99075.06;;;17.83;62.24
55373;BME280;70018;47.838;16.490;2023-06-10T10:50:24;99066.00;;;18.35;61.81
55373;BME280;70018;47.838;16.490;2023-06-10T10:53:02;99064.22;;;18.63;60.80
55373;BME280;70018;47.838;16.490;2023-06-10T10:55:29;99062.19;;;18.29;61.78
55373;BME280;70018;47.838;16.490;2023-06-10T10:57:58;99053.88;;;18.04;61.99
55373;BME280;70018;47.838;16.490;2023-06-10T11:00:28;99051.38;;;17.72;62.08
55373;BME280;70018;47.838;16.490;2023-06-10T11:02:59;99055.72;;;17.85;61.74
55373;BME280;70018;47.838;16.490;2023-06-10T11:05:40;99046.81;;;17.99;60.40
55373;BME280;70018;47.838;16.490;2023-06-10T11:08:08;99050.03;;;18.11;60.60
55373;BME280;70018;47.838;16.490;2023-06-10T11:10:37;99050.09;;;17.98;59.54
55373;BME280;70018;47.838;16.490;2023-06-10T11:13:07;99038.28;;;18.03;59.70
55373;BME280;70018;47.838;16.490;2023-06-10T11:15:48;99044.50;;;18.20;58.59
55373;BME280;70018;47.838;16.490;2023-06-10T11:18:25;99035.06;;;17.79;59.72
55373;BME280;70018;47.838;16.490;2023-06-10T11:20:59;99033.00;;;17.92;59.93
55373;BME280;70018;47.838;16.490;2023-06-10T11:26:14;99027.22;;;17.74;60.94
55373;BME280;70018;47.838;16.490;2023-06-10T11:28:42;99026.06;;;17.84;60.86
55373;BME280;70018;47.838;16.490;2023-06-10T11:31:50;99020.13;;;17.82;60.27
55373;BME280;70018;47.838;16.490;2023-06-10T11:34:22;99014.00;;;18.31;59.50
55373;BME280;70018;47.838;16.490;2023-06-10T11:36:51;99013.44;;;18.88;58.38
55373;BME280;70018;47.838;16.490;2023-06-10T11:39:20;99017.59;;;19.45;57.30
55373;BME280;70018;47.838;16.490;2023-06-10T11:41:47;99013.38;;;19.59;57.80
55373;BME280;70018;47.838;16.490;2023-06-10T11:44:15;99005.72;;;19.59;57.56
55373;BME280;70018;47.838;16.490;2023-06-10T11:46:47;99000.59;;;18.87;58.83
55373;BME280;70018;47.838;16.490;2023-06-10T11:49:14;98996.47;;;18.48;58.51
55373;BME280;70018;47.838;16.490;2023-06-10T11:51:41;99004.53;;;19.20;57.44
55373;BME280;70018;47.838;16.490;2023-06-10T11:54:16;98992.41;;;19.51;55.85
55373;BME280;70018;47.838;16.490;2023-06-10T11:56:43;98994.38;;;19.90;55.64
55373;BME280;70018;47.838;16.490;2023-06-10T11:59:10;98991.56;;;19.90;55.10
55373;BME280;70018;47.838;16.490;2023-06-10T12:01:40;98988.41;;;20.42;53.92
55373;BME280;70018;47.838;16.490;2023-06-10T12:04:12;98983.91;;;20.18;54.92
55373;BME280;70018;47.838;16.490;2023-06-10T12:06:49;98989.53;;;20.09;52.32
55373;BME280;70018;47.838;16.490;2023-06-10T12:09:23;98984.28;;;19.53;54.96
55373;BME280;70018;47.838;16.490;2023-06-10T12:12:04;98976.50;;;18.77;57.14
55373;BME280;70018;47.838;16.490;2023-06-10T12:14:57;98987.19;;;18.39;57.46
55373;BME280;70018;47.838;16.490;2023-06-10T12:19:59;98979.47;;;18.52;58.16
55373;BME280;70018;47.838;16.490;2023-06-10T12:22:26;98983.47;;;18.42;57.98
55373;BME280;70018;47.838;16.490;2023-06-10T12:25:04;98983.00;;;18.22;58.54
55373;BME280;70018;47.838;16.490;2023-06-10T12:27:31;98963.06;;;18.07;59.35
55373;BME280;70018;47.838;16.490;2023-06-10T12:29:58;98966.19;;;17.87;60.22
55373;BME280;70018;47.838;16.490;2023-06-10T12:32:45;98966.06;;;17.44;62.21
55373;BME280;70018;47.838;16.490;2023-06-10T12:35:23;98966.44;;;17.33;62.36
55373;BME280;70018;47.838;16.490;2023-06-10T12:40:29;98965.91;;;17.26;63.07
55373;BME280;70018;47.838;16.490;2023-06-10T12:42:58;98957.13;;;17.11;63.50
55373;BME280;70018;47.838;16.490;2023-06-10T12:45:38;98950.06;;;17.19;63.60
55373;BME280;70018;47.838;16.490;2023-06-10T12:48:18;98948.72;;;17.24;63.73
55373;BME280;70018;47.838;16.490;2023-06-10T12:50:50;98952.47;;;17.55;63.12
55373;BME280;70018;47.838;16.490;2023-06-10T12:53:18;98946.41;;;17.91;61.69
55373;BME280;70018;47.838;16.490;2023-06-10T12:55:45;98941.56;;;18.35;59.74
55373;BME280;70018;47.838;16.490;2023-06-10T12:58:12;98943.63;;;19.05;58.99
55373;BME280;70018;47.838;16.490;2023-06-10T13:00:39;98944.88;;;19.53;56.53
55373;BME280;70018;47.838;16.490;2023-06-10T13:03:09;98944.44;;;20.00;55.37
55373;BME280;70018;47.838;16.490;2023-06-10T13:05:36;98934.34;;;20.62;54.20
55373;BME280;70018;47.838;16.490;2023-06-10T13:08:06;98923.78;;;21.13;52.68
55373;BME280;70018;47.838;16.490;2023-06-10T13:10:33;98942.00;;;21.36;52.20